Time;durP1;ratioP1;P1;durP2;ratioP2;P2;SDS_P1;SDS_P2;PMS_P1;PMS_P2;Temp;Humidity;BMP_temperature;BMP_pressure;BME280_temperature;BME280_humidity;BME280_pressure;Samples;Min_cycle;Max_cycle;Signal;HPM_P1;HPM_P2
2021/05/19 00:01:52;;;;;;;2.38;1.00;;;8.80;82.00;;;;;;5092593;28;20411;-82
2021/05/19 00:04:17;;;;;;;2.30;1.00;;;8.80;81.50;;;;;;5093721;28;20427;-83
2021/05/19 00:06:44;;;;;;;1.30;0.57;;;8.90;81.50;;;;;;5095716;28;20024;-82
2021/05/19 00:09:12;;;;;;;3.03;0.77;;;8.90;81.40;;;;;;5117111;28;20036;-78
2021/05/19 00:11:39;;;;;;;1.77;0.75;;;9.00;81.30;;;;;;5115073;28;20001;-80
2021/05/19 00:14:07;;;;;;;1.42;0.60;;;8.90;81.30;;;;;;5096812;28;20456;-83
2021/05/19 00:16:33;;;;;;;1.75;0.60;;;9.00;81.00;;;;;;5093507;28;20020;-83
2021/05/19 00:18:59;;;;;;;2.38;0.80;;;9.00;81.90;;;;;;5093639;28;20468;-84
2021/05/19 00:21:25;;;;;;;2.13;0.80;;;9.00;81.20;;;;;;5093565;28;20028;-83
2021/05/19 00:23:50;;;;;;;1.48;0.60;;;9.00;81.20;;;;;;5093349;28;20024;-84
2021/05/19 00:26:16;;;;;;;3.00;0.68;;;9.10;81.20;;;;;;5091995;28;20111;-83
2021/05/19 00:28:45;;;;;;;3.10;0.68;;;9.10;81.10;;;;;;5093148;28;20059;-81
2021/05/19 00:31:11;;;;;;;1.90;1.00;;;9.10;80.80;;;;;;5092108;28;20039;-82
2021/05/19 00:33:36;;;;;;;1.85;0.80;;;9.10;80.10;;;;;;5096789;28;20463;-83
2021/05/19 00:36:02;;;;;;;0.40;0.40;;;9.10;80.30;;;;;;5097707;28;20016;-81
2021/05/19 00:38:28;;;;;;;2.75;0.77;;;9.10;80.10;;;;;;5097481;28;20119;-82
2021/05/19 00:40:54;;;;;;;1.65;0.98;;;9.10;80.70;;;;;;5097530;28;20099;-81
2021/05/19 00:43:20;;;;;;;2.70;0.90;;;9.00;80.70;;;;;;5097472;28;20030;-81
2021/05/19 00:45:46;;;;;;;2.50;1.08;;;9.00;81.20;;;;;;5097303;28;20573;-77
2021/05/19 00:48:11;;;;;;;1.13;0.80;;;9.00;81.50;;;;;;5097171;28;20099;-82
2021/05/19 00:50:39;;;;;;;2.20;1.00;;;9.00;81.10;;;;;;5097398;28;20380;-80
2021/05/19 00:53:05;;;;;;;1.13;0.80;;;9.00;80.80;;;;;;5097017;28;20035;-79
2021/05/19 00:55:31;;;;;;;2.75;1.00;;;8.90;81.20;;;;;;5095699;28;20069;-78
2021/05/19 00:57:56;;;;;;;0.93;0.68;;;8.90;81.70;;;;;;5096970;28;20024;-77
2021/05/19 01:00:24;;;;;;;2.92;1.08;;;9.00;81.20;;;;;;5097000;28;20385;-79
2021/05/19 01:02:52;;;;;;;3.90;0.85;;;8.90;81.00;;;;;;5097146;28;20032;-78
2021/05/19 01:05:40;;;;;;;2.67;0.82;;;8.80;81.50;;;;;;5096907;28;20495;-77
2021/05/19 01:10:51;;;;;;;2.78;1.10;;;8.80;81.60;;;;;;5096896;28;20161;-77
2021/05/19 01:13:16;;;;;;;4.43;1.50;;;8.70;82.00;;;;;;5098766;28;20511;-77
2021/05/19 01:15:43;;;;;;;1.27;1.17;;;8.80;82.10;;;;;;5098036;28;20020;-77
2021/05/19 01:18:10;;;;;;;2.10;1.20;;;8.80;82.90;;;;;;5102085;28;20028;-83
2021/05/19 01:20:36;;;;;;;2.88;1.10;;;8.90;82.20;;;;;;5106703;28;20036;-82
2021/05/19 01:23:04;;;;;;;2.13;1.05;;;8.80;82.30;;;;;;5101572;28;20030;-82
2021/05/19 01:25:30;;;;;;;2.85;1.20;;;8.80;82.80;;;;;;5097510;28;20028;-80
2021/05/19 01:28:02;;;;;;;3.92;1.00;;;8.70;83.00;;;;;;5096626;28;20038;-84
2021/05/19 01:30:29;;;;;;;3.75;1.60;;;8.80;82.80;;;;;;5094527;28;20027;-80
2021/05/19 01:32:55;;;;;;;2.25;1.20;;;8.70;83.60;;;;;;5096920;28;20055;-84
2021/05/19 01:35:21;;;;;;;4.05;1.30;;;8.70;83.50;;;;;;5096069;28;20020;-83
2021/05/19 01:37:47;;;;;;;5.82;1.58;;;8.60;83.10;;;;;;5096346;28;20104;-84
2021/05/19 01:40:15;;;;;;;3.90;1.92;;;8.50;83.60;;;;;;5096252;28;20028;-84
2021/05/19 01:42:44;;;;;;;3.55;1.80;;;8.50;84.10;;;;;;5096244;28;20024;-85
2021/05/19 01:45:11;;;;;;;3.60;1.85;;;8.40;84.20;;;;;;5095852;28;20051;-86
2021/05/19 01:47:48;;;;;;;4.28;1.90;;;8.40;84.10;;;;;;5096341;28;20028;-86
2021/05/19 01:50:17;;;;;;;1.92;1.50;;;8.50;84.10;;;;;;5096291;28;20020;-86
2021/05/19 01:52:43;;;;;;;6.47;1.70;;;8.50;84.00;;;;;;5095926;28;20028;-77
2021/05/19 01:55:10;;;;;;;4.65;1.70;;;8.60;83.70;;;;;;5094712;28;20361;-85
2021/05/19 01:57:37;;;;;;;2.42;1.58;;;8.60;83.00;;;;;;5094819;28;20028;-85
2021/05/19 02:00:06;;;;;;;5.47;2.22;;;8.60;83.40;;;;;;5096124;28;20092;-86
2021/05/19 02:02:32;;;;;;;5.60;1.65;;;8.60;83.40;;;;;;5095940;28;20103;-86
2021/05/19 02:04:59;;;;;;;1.58;1.33;;;8.60;83.20;;;;;;5096042;28;20051;-86
2021/05/19 02:07:24;;;;;;;3.38;1.92;;;8.50;83.40;;;;;;5095974;28;20025;-85
2021/05/19 02:09:50;;;;;;;4.07;1.48;;;8.50;83.30;;;;;;5094694;28;20091;-85
2021/05/19 02:12:17;;;;;;;2.70;1.60;;;8.50;83.00;;;;;;5095823;28;20028;-86
2021/05/19 02:14:42;;;;;;;4.20;2.08;;;8.50;83.20;;;;;;5095734;28;20119;-83
2021/05/19 02:17:08;;;;;;;3.13;1.73;;;8.60;83.00;;;;;;5095646;28;20509;-80
2021/05/19 02:19:34;;;;;;;3.50;1.50;;;8.60;82.90;;;;;;5095447;28;20028;-80
2021/05/19 02:22:00;;;;;;;4.20;1.73;;;8.60;83.20;;;;;;5095789;28;20055;-87
2021/05/19 02:24:26;;;;;;;3.83;1.92;;;8.60;83.20;;;;;;5095650;28;20052;-85
2021/05/19 02:26:51;;;;;;;3.72;1.45;;;8.70;82.80;;;;;;5094610;28;20137;-86
2021/05/19 02:29:17;;;;;;;3.92;1.70;;;8.70;82.50;;;;;;5095582;28;20095;-85
2021/05/19 02:31:43;;;;;;;2.13;1.50;;;8.60;82.50;;;;;;5095669;28;20031;-87
2021/05/19 02:34:09;;;;;;;3.10;1.65;;;8.70;82.70;;;;;;5095861;28;20096;-85
2021/05/19 02:36:36;;;;;;;3.17;1.88;;;8.70;82.70;;;;;;5095716;28;20073;-86
2021/05/19 02:39:03;;;;;;;4.88;1.95;;;8.70;82.30;;;;;;5095564;28;20034;-84
2021/05/19 02:41:29;;;;;;;3.53;1.67;;;8.70;82.50;;;;;;5095111;28;20024;-83
2021/05/19 02:43:54;;;;;;;3.42;1.60;;;8.70;82.60;;;;;;5094907;28;20020;-85
2021/05/19 02:46:20;;;;;;;2.72;1.60;;;8.70;82.20;;;;;;5095141;28;20036;-85
2021/05/19 02:48:45;;;;;;;2.60;1.77;;;8.70;81.90;;;;;;5095069;28;20028;-86
2021/05/19 02:51:11;;;;;;;3.42;1.65;;;8.70;82.00;;;;;;5094873;28;20028;-84
2021/05/19 02:53:37;;;;;;;4.05;1.90;;;8.70;82.30;;;;;;5095085;28;20032;-85
2021/05/19 02:56:04;;;;;;;3.03;1.67;;;8.60;82.60;;;;;;5095500;28;20020;-87
2021/05/19 02:58:31;;;;;;;3.35;1.83;;;8.70;83.00;;;;;;5097945;28;20507;-85
2021/05/19 03:00:56;;;;;;;2.28;1.40;;;8.70;82.30;;;;;;5095856;28;20353;-86
2021/05/19 03:03:23;;;;;;;4.75;1.77;;;8.70;82.20;;;;;;5095270;28;20020;-87
2021/05/19 03:05:48;;;;;;;2.88;1.60;;;8.70;81.50;;;;;;5112024;28;20028;-85
2021/05/19 03:08:14;;;;;;;4.63;1.92;;;8.80;81.10;;;;;;5098188;28;20027;-86
2021/05/19 03:10:40;;;;;;;4.30;1.85;;;8.70;81.40;;;;;;5106395;28;20028;-87
2021/05/19 03:13:05;;;;;;;3.67;2.15;;;8.70;81.30;;;;;;5110333;28;20059;-86
2021/05/19 03:15:31;;;;;;;3.60;2.05;;;8.70;81.50;;;;;;5113029;28;20016;-86
2021/05/19 03:17:58;;;;;;;3.03;1.77;;;8.60;81.60;;;;;;5112793;28;20024;-87
2021/05/19 03:20:24;;;;;;;4.55;1.73;;;8.60;81.70;;;;;;5102041;28;20079;-86
2021/05/19 03:22:50;;;;;;;4.53;1.58;;;8.60;81.60;;;;;;5098378;28;20058;-87
2021/05/19 03:25:15;;;;;;;4.18;1.80;;;8.60;81.90;;;;;;5102973;28;20031;-87
2021/05/19 03:27:41;;;;;;;3.17;1.95;;;8.60;81.70;;;;;;5096655;28;20085;-87
2021/05/19 03:30:12;;;;;;;2.00;1.33;;;8.60;82.10;;;;;;5097297;28;20047;-87
2021/05/19 03:32:38;;;;;;;4.88;1.50;;;8.50;82.30;;;;;;5095477;28;20156;-83
2021/05/19 03:35:06;;;;;;;4.35;1.40;;;8.60;82.50;;;;;;5093963;28;20055;-79
2021/05/19 03:37:33;;;;;;;2.13;1.60;;;8.60;82.40;;;;;;5094178;28;20028;-81
2021/05/19 03:39:59;;;;;;;2.88;1.40;;;8.70;82.50;;;;;;5094066;28;20055;-77
2021/05/19 03:42:24;;;;;;;5.93;1.73;;;8.70;82.00;;;;;;5101181;28;20020;-77
2021/05/19 03:44:50;;;;;;;6.25;2.60;;;8.70;81.70;;;;;;5093895;28;20541;-77
2021/05/19 03:47:16;;;;;;;3.33;1.63;;;8.80;81.70;;;;;;5093841;28;20350;-78
2021/05/19 03:49:41;;;;;;;4.15;1.65;;;8.70;81.50;;;;;;5093783;28;20030;-77
2021/05/19 03:52:08;;;;;;;4.70;1.77;;;8.70;81.20;;;;;;5093535;28;20032;-78
2021/05/19 03:54:34;;;;;;;6.95;1.70;;;8.80;81.20;;;;;;5093347;28;20028;-78
2021/05/19 03:57:06;;;;;;;2.45;2.00;;;8.80;80.80;;;;;;5093431;28;20488;-78
2021/05/19 03:59:32;;;;;;;2.42;1.60;;;8.70;80.70;;;;;;5093299;28;20016;-76
2021/05/19 04:01:58;;;;;;;6.45;1.83;;;8.80;81.00;;;;;;5093420;28;20024;-77
2021/05/19 04:04:24;;;;;;;5.63;1.70;;;8.80;81.00;;;;;;5093475;28;20392;-80
2021/05/19 04:06:50;;;;;;;4.38;1.80;;;8.80;80.50;;;;;;5093299;28;20387;-78
2021/05/19 04:09:15;;;;;;;2.78;1.20;;;8.90;80.40;;;;;;5093275;28;20020;-78
2021/05/19 04:11:41;;;;;;;8.35;1.45;;;8.90;80.40;;;;;;5092972;28;20024;-78
2021/05/19 04:14:07;;;;;;;2.88;1.55;;;8.90;80.50;;;;;;5093259;28;20035;-78
2021/05/19 04:16:33;;;;;;;4.65;2.20;;;8.90;80.70;;;;;;5093065;28;20016;-79
2021/05/19 04:18:59;;;;;;;2.03;1.67;;;8.90;80.90;;;;;;5093170;28;20028;-79
2021/05/19 04:21:25;;;;;;;2.80;2.03;;;8.90;81.10;;;;;;5093146;28;20020;-77
2021/05/19 04:23:50;;;;;;;2.90;1.75;;;8.80;80.40;;;;;;5093179;28;20028;-78
2021/05/19 04:26:16;;;;;;;6.28;2.03;;;8.80;80.60;;;;;;5093118;28;20469;-78
2021/05/19 04:28:44;;;;;;;3.90;2.33;;;8.90;81.00;;;;;;5093014;28;20032;-78
2021/05/19 04:31:10;;;;;;;3.50;2.20;;;8.90;81.10;;;;;;5093372;28;20025;-77
2021/05/19 04:33:35;;;;;;;3.38;2.00;;;8.90;81.20;;;;;;5092905;28;20039;-77
2021/05/19 04:36:01;;;;;;;5.70;2.40;;;9.00;81.00;;;;;;5093221;28;20019;-77
2021/05/19 04:38:26;;;;;;;3.65;1.80;;;9.00;80.90;;;;;;5091955;28;20025;-79
2021/05/19 04:40:52;;;;;;;3.67;2.03;;;9.00;80.80;;;;;;5093022;28;20066;-77
2021/05/19 04:43:18;;;;;;;2.72;1.77;;;9.00;79.90;;;;;;5093188;28;20024;-77
2021/05/19 04:45:44;;;;;;;3.65;2.30;;;9.00;80.30;;;;;;5092720;28;20396;-76
2021/05/19 04:48:11;;;;;;;5.63;2.10;;;9.00;79.80;;;;;;5093232;28;20535;-76
2021/05/19 04:50:37;;;;;;;3.55;1.95;;;9.10;80.20;;;;;;5095855;28;20464;-76
2021/05/19 04:53:03;;;;;;;2.70;1.65;;;9.10;80.20;;;;;;5095741;28;20032;-76
2021/05/19 04:55:30;;;;;;;3.20;1.65;;;9.10;80.10;;;;;;5099470;28;20024;-77
2021/05/19 04:57:56;;;;;;;4.88;1.70;;;9.20;80.00;;;;;;5097632;28;20496;-76
2021/05/19 05:00:22;;;;;;;2.25;1.27;;;9.20;79.50;;;;;;5094567;28;20034;-77
2021/05/19 05:02:47;;;;;;;2.88;1.65;;;9.30;79.00;;;;;;5091360;28;20119;-77
2021/05/19 05:05:13;;;;;;;5.03;1.75;;;9.40;78.30;;;;;;5092707;28;20024;-77
2021/05/19 05:07:39;;;;;;;2.78;1.27;;;9.70;77.70;;;;;;5092717;28;20039;-77
2021/05/19 05:10:06;;;;;;;3.00;1.08;;;9.70;76.40;;;;;;5092727;28;20071;-77
2021/05/19 05:12:32;;;;;;;2.08;1.42;;;9.80;75.10;;;;;;5092559;28;20480;-78
2021/05/19 05:14:58;;;;;;;3.45;1.48;;;9.80;76.10;;;;;;5092879;28;20035;-77
2021/05/19 05:17:24;;;;;;;2.58;1.55;;;9.80;75.70;;;;;;5092619;28;20024;-76
2021/05/19 05:19:49;;;;;;;3.35;1.20;;;9.80;76.20;;;;;;5093452;28;20024;-77
2021/05/19 05:22:15;;;;;;;2.08;1.58;;;9.80;76.50;;;;;;5096509;28;20024;-77
2021/05/19 05:24:41;;;;;;;2.50;1.60;;;9.90;75.40;;;;;;5096263;28;20032;-76
2021/05/19 05:27:06;;;;;;;4.15;1.40;;;9.70;75.60;;;;;;5096771;28;20028;-77
2021/05/19 05:29:32;;;;;;;2.80;1.40;;;9.60;75.60;;;;;;5096069;28;20020;-78
2021/05/19 05:31:58;;;;;;;2.95;1.65;;;9.50;75.60;;;;;;5096136;28;20410;-77
2021/05/19 05:34:24;;;;;;;6.93;1.60;;;9.40;75.70;;;;;;5095022;28;20024;-77
2021/05/19 05:36:50;;;;;;;2.20;1.33;;;9.40;76.00;;;;;;5095442;28;20026;-77
2021/05/19 05:39:15;;;;;;;5.85;1.60;;;9.30;76.80;;;;;;5095277;28;20116;-77
2021/05/19 05:41:41;;;;;;;2.75;1.20;;;9.40;76.10;;;;;;5095961;28;20028;-76
2021/05/19 05:44:07;;;;;;;1.73;1.17;;;9.40;76.90;;;;;;5095863;28;20040;-78
2021/05/19 05:46:33;;;;;;;5.35;1.42;;;9.50;75.50;;;;;;5095845;28;20031;-77
2021/05/19 05:48:59;;;;;;;5.45;1.73;;;9.70;75.50;;;;;;5094576;28;20044;-76
2021/05/19 05:51:25;;;;;;;2.88;1.50;;;9.80;74.20;;;;;;5095777;28;20028;-76
2021/05/19 05:53:51;;;;;;;3.35;1.52;;;9.70;74.70;;;;;;5095776;28;20480;-76
2021/05/19 05:56:17;;;;;;;3.50;1.23;;;9.90;74.50;;;;;;5095733;28;20035;-76
2021/05/19 05:58:42;;;;;;;5.10;1.88;;;10.20;73.70;;;;;;5095623;28;20477;-76
2021/05/19 06:01:10;;;;;;;8.13;2.53;;;10.20;72.80;;;;;;5095561;28;20069;-77
2021/05/19 06:03:36;;;;;;;2.15;1.25;;;10.40;71.80;;;;;;5095384;28;20035;-77
2021/05/19 06:06:02;;;;;;;2.55;1.33;;;10.40;71.80;;;;;;5095610;28;20024;-77
2021/05/19 06:08:27;;;;;;;3.58;1.58;;;10.30;71.40;;;;;;5095482;28;20434;-77
2021/05/19 06:10:53;;;;;;;2.25;1.25;;;10.30;71.10;;;;;;5095540;28;20020;-77
2021/05/19 06:13:19;;;;;;;2.05;1.50;;;10.30;71.80;;;;;;5095275;28;20046;-77
2021/05/19 06:15:44;;;;;;;5.68;3.72;;;10.30;72.20;;;;;;5095400;28;20020;-77
2021/05/19 06:18:10;;;;;;;3.42;1.50;;;10.40;71.70;;;;;;5095274;28;20042;-77
2021/05/19 06:20:35;;;;;;;3.17;1.60;;;10.50;70.70;;;;;;5095136;28;20020;-78
2021/05/19 06:23:01;;;;;;;4.00;1.65;;;10.60;70.90;;;;;;5094007;28;20063;-78
2021/05/19 06:25:26;;;;;;;3.13;1.60;;;10.60;70.40;;;;;;5093903;28;20050;-78
2021/05/19 06:27:52;;;;;;;5.85;1.85;;;10.50;69.10;;;;;;5094041;28;20107;-78
2021/05/19 06:30:18;;;;;;;4.65;2.17;;;10.50;69.10;;;;;;5095072;28;20452;-76
2021/05/19 06:32:44;;;;;;;1.90;1.42;;;10.60;69.10;;;;;;5093860;28;20036;-80
2021/05/19 06:35:10;;;;;;;2.75;1.67;;;10.60;69.30;;;;;;5094876;28;20070;-78
2021/05/19 06:37:36;;;;;;;3.78;1.45;;;10.70;68.70;;;;;;5093649;28;20081;-79
2021/05/19 06:40:04;;;;;;;3.88;1.83;;;10.60;69.30;;;;;;5093265;28;20473;-79
2021/05/19 06:42:30;;;;;;;3.35;1.80;;;10.50;70.50;;;;;;5093519;28;20495;-78
2021/05/19 06:44:55;;;;;;;6.30;1.83;;;10.50;70.90;;;;;;5095049;28;20048;-78
2021/05/19 06:47:21;;;;;;;4.13;1.75;;;10.50;70.30;;;;;;5094584;28;20024;-79
2021/05/19 06:49:48;;;;;;;2.60;1.95;;;10.40;70.80;;;;;;5094486;28;20035;-79
2021/05/19 06:52:15;;;;;;;4.13;2.03;;;10.60;70.50;;;;;;5094361;28;20506;-78
2021/05/19 06:54:41;;;;;;;4.05;1.83;;;10.60;69.80;;;;;;5093281;28;20023;-77
2021/05/19 06:57:07;;;;;;;3.13;1.73;;;10.70;69.50;;;;;;5094446;28;20048;-79
2021/05/19 06:59:32;;;;;;;4.07;1.70;;;10.80;69.70;;;;;;5094306;28;20056;-77
2021/05/19 07:01:58;;;;;;;4.95;1.40;;;11.00;69.80;;;;;;5094032;28;20027;-78
2021/05/19 07:04:24;;;;;;;2.75;1.35;;;11.00;69.80;;;;;;5094244;28;20030;-77
2021/05/19 07:06:49;;;;;;;4.55;1.48;;;11.00;70.40;;;;;;5094221;28;20032;-77
2021/05/19 07:09:15;;;;;;;3.70;1.42;;;10.90;71.00;;;;;;5094117;28;20032;-77
2021/05/19 07:11:41;;;;;;;2.97;1.58;;;11.00;70.80;;;;;;5093992;28;20063;-78
2021/05/19 07:14:14;;;;;;;3.38;1.70;;;10.80;70.40;;;;;;5094089;28;20032;-78
2021/05/19 07:16:41;;;;;;;2.53;1.73;;;11.00;70.50;;;;;;5094021;28;20407;-78
2021/05/19 07:19:07;;;;;;;3.15;1.60;;;11.10;69.30;;;;;;5094095;28;20626;-77
2021/05/19 07:21:33;;;;;;;2.60;1.60;;;11.20;70.80;;;;;;5093979;28;20027;-76
2021/05/19 07:23:58;;;;;;;2.58;1.85;;;11.20;70.20;;;;;;5094185;28;20016;-80
2021/05/19 07:26:25;;;;;;;2.67;1.80;;;11.30;70.00;;;;;;5093772;28;20027;-76
2021/05/19 07:28:52;;;;;;;4.53;1.83;;;11.00;69.70;;;;;;5093743;28;20020;-75
2021/05/19 07:31:18;;;;;;;6.03;1.90;;;10.90;69.20;;;;;;5092344;28;20028;-73
2021/05/19 07:33:43;;;;;;;2.78;1.65;;;11.00;69.30;;;;;;5092566;28;20059;-75
2021/05/19 07:36:09;;;;;;;3.60;1.60;;;10.90;70.50;;;;;;5093570;28;20400;-74
2021/05/19 07:38:35;;;;;;;3.58;1.52;;;11.10;70.10;;;;;;5092117;28;20031;-76
2021/05/19 07:41:00;;;;;;;3.20;1.40;;;11.20;69.80;;;;;;5093493;28;20057;-76
2021/05/19 07:43:26;;;;;;;5.50;1.98;;;11.30;70.10;;;;;;5093193;28;20447;-74
2021/05/19 07:45:51;;;;;;;3.20;2.03;;;11.40;68.40;;;;;;5093111;28;20040;-75
2021/05/19 07:48:18;;;;;;;3.70;1.73;;;11.30;68.70;;;;;;5092885;28;20029;-77
2021/05/19 07:50:43;;;;;;;3.13;1.50;;;11.60;69.40;;;;;;5092661;28;20099;-76
2021/05/19 07:53:09;;;;;;;4.50;2.63;;;11.80;67.10;;;;;;5093290;28;20139;-75
2021/05/19 07:58:23;;;;;;;3.95;2.00;;;11.80;68.40;;;;;;5093322;28;20031;-73
2021/05/19 08:03:38;;;;;;;6.03;1.73;;;12.40;65.90;;;;;;5086683;28;20126;-72
2021/05/19 08:06:04;;;;;;;4.90;1.98;;;12.40;64.70;;;;;;5091926;28;20042;-74
2021/05/19 08:08:30;;;;;;;6.85;2.00;;;12.70;63.40;;;;;;5093387;28;20031;-73
2021/05/19 08:10:56;;;;;;;3.65;1.60;;;12.70;62.60;;;;;;5093485;28;20024;-73
2021/05/19 08:13:21;;;;;;;4.63;1.83;;;12.50;62.30;;;;;;5093119;28;20124;-76
2021/05/19 08:15:49;;;;;;;4.25;1.75;;;12.70;64.00;;;;;;5092852;28;20020;-74
2021/05/19 08:18:17;;;;;;;4.72;1.83;;;12.80;62.20;;;;;;5092111;28;20028;-73
2021/05/19 08:20:43;;;;;;;4.22;1.40;;;13.00;62.10;;;;;;5092927;28;20031;-73
2021/05/19 08:23:08;;;;;;;2.42;1.17;;;13.20;62.00;;;;;;5092764;28;20028;-73
2021/05/19 08:25:34;;;;;;;8.93;1.30;;;13.20;61.70;;;;;;5092956;28;20016;-72
2021/05/19 08:27:59;;;;;;;3.35;1.73;;;12.90;62.40;;;;;;5092860;28;20028;-73
2021/05/19 08:30:26;;;;;;;4.18;1.85;;;12.50;63.90;;;;;;5092816;28;20061;-73
2021/05/19 08:32:52;;;;;;;3.85;1.60;;;12.20;64.20;;;;;;5092572;28;20097;-76
2021/05/19 08:35:18;;;;;;;4.55;1.65;;;12.40;64.90;;;;;;5092839;28;20016;-73
2021/05/19 08:37:44;;;;;;;4.38;1.15;;;12.40;64.10;;;;;;5091302;28;20069;-74
2021/05/19 08:40:10;;;;;;;4.85;1.10;;;12.70;65.20;;;;;;5092703;28;20150;-75
2021/05/19 08:42:36;;;;;;;5.03;1.50;;;13.10;62.30;;;;;;5092528;28;20020;-75
2021/05/19 08:45:06;;;;;;;2.47;1.10;;;12.90;60.40;;;;;;5092517;28;20123;-75
2021/05/19 08:47:32;;;;;;;2.97;1.40;;;12.50;61.70;;;;;;5091427;28;20073;-77
2021/05/19 08:49:57;;;;;;;2.92;1.25;;;12.30;63.30;;;;;;5092597;28;20090;-76
2021/05/19 08:52:23;;;;;;;3.78;1.48;;;12.20;62.20;;;;;;5091138;28;20472;-75
2021/05/19 08:54:51;;;;;;;6.15;1.92;;;12.00;62.40;;;;;;5093176;28;20047;-75
2021/05/19 08:57:18;;;;;;;1.42;0.95;;;11.60;63.90;;;;;;5096690;28;20016;-74
2021/05/19 08:59:44;;;;;;;3.50;1.20;;;11.60;64.00;;;;;;5096580;28;20024;-76
2021/05/19 09:02:11;;;;;;;3.08;1.00;;;11.70;64.30;;;;;;5096485;28;20484;-74
2021/05/19 09:04:37;;;;;;;3.60;1.00;;;11.60;65.50;;;;;;5096397;28;20024;-75
2021/05/19 09:07:03;;;;;;;4.22;0.90;;;11.80;65.40;;;;;;5096338;28;20114;-76
2021/05/19 09:09:37;;;;;;;3.58;1.00;;;12.10;63.80;;;;;;5096286;28;20031;-75
2021/05/19 09:12:08;;;;;;;2.80;1.20;;;12.30;62.30;;;;;;5096353;28;20338;-75
2021/05/19 09:14:43;;;;;;;3.53;0.82;;;12.40;60.50;;;;;;5096397;28;20130;-76
2021/05/19 09:17:29;;;;;;;4.55;0.82;;;12.40;60.00;;;;;;5096199;28;20099;-75
2021/05/19 09:20:03;;;;;;;;;;;12.60;57.60;;;;;;5096558;28;20028;-74
2021/05/19 09:22:33;;;;;;;6.07;1.08;;;12.50;57.50;;;;;;5111799;28;19943;-75
2021/05/19 09:25:01;;;;;;;1.95;0.80;;;12.40;58.80;;;;;;5095042;28;20051;-76
2021/05/19 09:27:41;;;;;;;1.73;0.85;;;12.40;59.10;;;;;;5095996;28;20028;-75
2021/05/19 09:30:08;;;;;;;2.97;0.93;;;12.30;60.70;;;;;;5096161;28;20024;-74
2021/05/19 09:32:39;;;;;;;3.38;0.75;;;12.50;59.00;;;;;;5095667;28;20496;-76
2021/05/19 09:35:06;;;;;;;2.28;0.85;;;12.70;59.00;;;;;;5095910;28;20080;-76
2021/05/19 09:37:33;;;;;;;1.10;0.80;;;12.70;60.60;;;;;;5095961;28;20073;-76
2021/05/19 09:40:05;;;;;;;2.28;0.80;;;12.90;59.00;;;;;;5095800;28;20042;-75
2021/05/19 09:42:36;;;;;;;2.60;0.98;;;13.10;57.00;;;;;;5095840;28;20035;-76
2021/05/19 09:45:42;;;;;;;6.00;1.00;;;13.10;55.70;;;;;;5095506;28;20400;-76
2021/05/19 09:48:13;;;;;;;4.28;0.73;;;13.20;54.30;;;;;;5097205;28;20028;-76
2021/05/19 09:50:42;;;;;;;5.05;0.88;;;13.50;53.00;;;;;;5096203;28;20069;-75
2021/05/19 09:53:15;;;;;;;3.60;0.85;;;13.40;52.20;;;;;;5095411;28;20385;-75
2021/05/19 09:56:02;;;;;;;3.33;0.52;;;13.40;51.80;;;;;;5095347;28;20393;-75
2021/05/19 09:58:40;;;;;;;1.08;0.45;;;13.60;49.00;;;;;;5095183;28;20024;-75
2021/05/19 10:01:07;;;;;;;0.93;0.60;;;13.60;45.50;;;;;;5095221;28;20020;-75
2021/05/19 10:03:34;;;;;;;3.13;0.70;;;13.70;45.80;;;;;;5095369;28;20021;-75
2021/05/19 10:08:35;;;;;;;3.83;0.50;;;14.00;45.30;;;;;;5094751;28;20060;-75
2021/05/19 10:11:03;;;;;;;2.25;0.60;;;14.20;46.20;;;;;;5094970;28;20102;-75
2021/05/19 10:13:30;;;;;;;2.30;0.70;;;14.10;44.70;;;;;;5095085;28;20115;-75
2021/05/19 10:16:05;;;;;;;0.80;0.60;;;14.20;44.30;;;;;;5095020;28;20020;-75
2021/05/19 10:18:36;;;;;;;1.50;0.40;;;14.50;43.90;;;;;;5095031;28;20031;-76
2021/05/19 10:21:02;;;;;;;4.13;0.50;;;14.60;45.20;;;;;;5095553;28;20027;-75
2021/05/19 10:23:40;;;;;;;3.58;0.70;;;14.80;44.60;;;;;;5097271;28;20036;-76
2021/05/19 10:26:11;;;;;;;1.63;0.60;;;14.60;43.20;;;;;;5099211;28;20024;-75
2021/05/19 10:28:41;;;;;;;3.25;0.50;;;14.30;43.30;;;;;;5095165;28;20024;-75
2021/05/19 10:31:41;;;;;;;2.25;0.45;;;14.30;43.00;;;;;;5093766;28;20024;-75
2021/05/19 10:34:09;;;;;;;2.88;0.43;;;14.30;43.60;;;;;;5094735;28;20028;-75
2021/05/19 10:36:41;;;;;;;3.75;0.60;;;14.60;43.50;;;;;;5094556;28;20048;-74
2021/05/19 10:39:08;;;;;;;1.00;0.70;;;15.00;42.30;;;;;;5094607;28;20024;-74
2021/05/19 10:41:44;;;;;;;3.10;0.60;;;14.70;43.10;;;;;;5089766;28;20020;-77
2021/05/19 10:44:12;;;;;;;2.05;0.70;;;15.00;42.70;;;;;;5086350;28;20511;-77
2021/05/19 10:46:57;;;;;;;5.03;0.80;;;15.10;41.70;;;;;;5093988;28;20032;-75
2021/05/19 10:49:42;;;;;;;3.73;0.70;;;15.30;39.80;;;;;;5094633;28;20039;-76
2021/05/19 10:57:59;;;;;;;4.32;0.95;;;16.00;39.40;;;;;;5094459;28;20433;-77
2021/05/19 11:00:26;;;;;;;7.07;2.20;;;15.50;38.50;;;;;;5094111;28;20031;-78
2021/05/19 11:05:39;;;;;;;2.88;1.15;;;15.90;39.30;;;;;;5094274;28;20020;-74
2021/05/19 11:08:07;;;;;;;4.65;1.30;;;16.10;38.40;;;;;;5096376;28;20024;-76
2021/05/19 11:10:35;;;;;;;5.35;2.20;;;16.40;36.30;;;;;;5099350;28;20019;-78
2021/05/19 11:13:01;;;;;;;2.05;0.70;;;16.40;36.10;;;;;;5098252;28;20047;-77
2021/05/19 11:15:45;;;;;;;1.77;0.80;;;16.20;35.90;;;;;;5095707;28;20016;-78
2021/05/19 11:18:17;;;;;;;1.83;0.50;;;15.80;37.20;;;;;;5093883;28;20117;-77
2021/05/19 11:20:43;;;;;;;1.67;0.63;;;15.60;38.10;;;;;;5094073;28;20166;-78
2021/05/19 11:23:10;;;;;;;3.78;0.82;;;15.50;38.60;;;;;;5094070;28;20099;-77
2021/05/19 11:25:36;;;;;;;2.25;0.73;;;15.40;40.30;;;;;;5092300;28;20031;-76
2021/05/19 11:28:02;;;;;;;2.53;0.68;;;15.70;40.00;;;;;;5092404;28;20020;-77
2021/05/19 11:30:29;;;;;;;3.22;0.93;;;15.90;38.90;;;;;;5093682;28;20024;-74
2021/05/19 11:33:09;;;;;;;2.85;0.60;;;16.20;38.30;;;;;;5093894;28;20028;-76
2021/05/19 11:35:36;;;;;;;2.88;0.40;;;16.50;37.60;;;;;;5093717;28;20012;-76
2021/05/19 11:38:05;;;;;;;4.63;0.95;;;16.10;36.70;;;;;;5093538;28;20031;-76
2021/05/19 11:40:49;;;;;;;1.42;0.55;;;15.00;37.30;;;;;;5093443;28;20020;-75
2021/05/19 11:43:17;;;;;;;1.65;0.60;;;15.20;38.50;;;;;;5093759;28;20024;-79
2021/05/19 11:45:44;;;;;;;2.28;0.70;;;15.90;38.00;;;;;;5093203;28;20051;-78
2021/05/19 11:48:21;;;;;;;1.10;0.50;;;16.20;36.30;;;;;;5093561;28;20024;-83
2021/05/19 11:50:47;;;;;;;3.00;0.50;;;16.20;35.00;;;;;;5094477;28;20024;-82
2021/05/19 11:53:13;;;;;;;6.30;0.77;;;16.50;34.90;;;;;;5109485;28;20054;-83
2021/05/19 11:55:50;;;;;;;3.65;0.65;;;16.80;33.80;;;;;;5093193;28;20016;-77
2021/05/19 11:58:24;;;;;;;5.82;1.40;;;16.70;34.20;;;;;;5093485;28;20036;-76
2021/05/19 12:00:57;;;;;;;4.22;0.73;;;17.10;34.70;;;;;;5093363;28;20437;-79
2021/05/19 12:03:25;;;;;;;1.65;0.60;;;17.60;34.40;;;;;;5109226;28;20032;-77
2021/05/19 12:05:50;;;;;;;2.78;0.30;;;18.00;33.50;;;;;;5093420;28;20496;-77
2021/05/19 12:08:19;;;;;;;3.40;1.20;;;18.40;33.10;;;;;;5093733;28;20068;-78
2021/05/19 12:10:45;;;;;;;3.92;0.95;;;18.70;31.80;;;;;;5093271;28;20028;-78
2021/05/19 12:13:13;;;;;;;0.70;0.35;;;18.70;30.70;;;;;;5092972;28;20036;-77
2021/05/19 12:15:40;;;;;;;5.72;0.73;;;19.00;30.40;;;;;;5092164;28;20019;-77
2021/05/19 12:18:08;;;;;;;1.52;0.70;;;18.70;30.70;;;;;;5093800;28;20028;-79
2021/05/19 12:20:37;;;;;;;1.83;0.55;;;18.70;30.70;;;;;;5091523;28;20024;-78
2021/05/19 12:23:05;;;;;;;1.05;0.38;;;18.70;31.70;;;;;;5093231;28;20547;-75
2021/05/19 12:25:34;;;;;;;2.05;0.60;;;18.30;31.40;;;;;;5093261;28;20368;-76
2021/05/19 12:28:08;;;;;;;2.88;0.77;;;18.10;31.70;;;;;;5092958;28;20111;-77
2021/05/19 12:30:47;;;;;;;2.03;0.60;;;17.80;31.60;;;;;;5091968;28;20024;-78
2021/05/19 12:33:15;;;;;;;2.75;0.40;;;18.20;32.00;;;;;;5092752;28;20085;-79
2021/05/19 12:35:45;;;;;;;3.38;0.50;;;18.40;32.40;;;;;;5092585;28;20045;-77
2021/05/19 12:38:11;;;;;;;1.83;0.70;;;18.80;32.50;;;;;;5092842;28;20020;-78
2021/05/19 12:40:39;;;;;;;1.05;0.47;;;18.80;32.10;;;;;;5092993;28;20089;-78
2021/05/19 12:43:09;;;;;;;2.85;0.45;;;18.90;32.60;;;;;;5092903;28;20028;-78
2021/05/19 12:45:41;;;;;;;2.15;0.60;;;18.90;32.00;;;;;;5092977;28;20067;-78
2021/05/19 12:48:11;;;;;;;3.22;0.50;;;18.60;31.30;;;;;;5092927;28;20544;-77
2021/05/19 12:51:00;;;;;;;3.53;0.50;;;18.40;31.40;;;;;;5092572;28;20524;-78
2021/05/19 12:53:35;;;;;;;3.20;0.70;;;18.20;31.50;;;;;;5092563;28;20031;-78
2021/05/19 12:56:05;;;;;;;2.93;0.50;;;18.20;31.80;;;;;;5092661;28;20433;-76
2021/05/19 12:58:47;;;;;;;3.17;0.73;;;18.00;32.00;;;;;;5092539;28;20262;-76
2021/05/19 13:01:12;;;;;;;3.28;0.73;;;17.80;32.80;;;;;;5092567;28;20038;-78
2021/05/19 13:03:40;;;;;;;4.13;0.70;;;17.30;33.80;;;;;;5092369;28;20107;-79
2021/05/19 13:06:07;;;;;;;2.63;0.70;;;16.90;35.10;;;;;;5092497;28;20020;-83
2021/05/19 13:08:33;;;;;;;2.42;0.93;;;16.60;36.20;;;;;;5090838;28;20384;-78
2021/05/19 13:11:00;;;;;;;3.30;0.77;;;16.40;37.20;;;;;;5092444;28;20371;-77
2021/05/19 13:13:39;;;;;;;3.45;0.45;;;16.20;38.40;;;;;;5092497;28;20032;-77
2021/05/19 13:16:10;;;;;;;1.10;0.50;;;16.20;38.60;;;;;;5092442;28;20477;-78